GMML

Hassan I Airport

El Aaiún, Western Sahara
TAF GMML 181100Z 1812/1918 36016KT 9999 BKN30 TEMPO 1812/1818 36020G32KT
Issued Valid From Valid To
Oct-18 @ 11:00 UTC
(an hour ago)
Oct-18 @ 12:00 UTC
(17 minutes ago)
Oct-19 @ 18:00 UTC
(-1 days ago)
Oct-18 @ 12:00 to Oct-19 @ 18:00
TAF GMML 181100Z 1812/1918 36016KT 9999 BKN30
Wind Visibility
360° at 16 knots 10,000+ meters
Temporary Oct-18 @ 12:00 to Oct-18 @ 18:00
TEMPO 1812/1818 36020G32KT
Wind
360° at 20 knots
 Gusting to 32 knots
TAF GMML 181100Z 1812/1918 36016KT 9999 BKN30 TEMPO 1812/1818 36020G32KT
Issued Oct-18 @ 11:00 UTC
(an hour ago)
Valid From Oct-18 @ 12:00 UTC
(17 minutes ago)
Valid To Oct-19 @ 18:00 UTC
(-1 days ago)
Oct-18 @ 12:00 - Oct-19 @ 18:00
Wind Visibility
360° at 16 knots 10,000+ meters
Temporary Oct-18 @ 12:00 - Oct-18 @ 18:00
Wind
360° at 20 knots
 Gusting to 32 knots